Time;durP1;ratioP1;P1;durP2;ratioP2;P2;SDS_P1;SDS_P2;PMS_P1;PMS_P2;Temp;Humidity;BMP_temperature;BMP_pressure;BME280_temperature;BME280_humidity;BME280_pressure;Samples;Min_cycle;Max_cycle;Signal;HPM_P1;HPM_P2
2024/01/01 00:00:09;;;;;;;1999.90;999.90;;;9.70;99.90;;;;;;5055298;28;20154;-77
2024/01/01 00:02:35;;;;;;;1999.90;999.90;;;9.70;99.90;;;;;;5055532;28;20062;-77
2024/01/01 00:05:00;;;;;;;1999.90;999.90;;;9.60;99.90;;;;;;5037447;28;20053;-77
2024/01/01 00:07:26;;;;;;;1999.90;999.90;;;9.50;99.90;;;;;;5055232;28;20399;-77
2024/01/01 00:09:52;;;;;;;1999.90;999.90;;;9.50;99.90;;;;;;5054482;28;20395;-77
2024/01/01 00:12:17;;;;;;;1999.90;999.90;;;9.50;99.90;;;;;;5055069;28;20100;-77
2024/01/01 00:14:43;;;;;;;1999.90;999.90;;;9.60;99.90;;;;;;5055106;28;20037;-77
2024/01/01 00:17:09;;;;;;;1999.90;999.90;;;9.60;99.90;;;;;;5055124;28;20115;-77
2024/01/01 00:19:34;;;;;;;1999.90;999.90;;;9.60;99.90;;;;;;5054855;28;20025;-76
2024/01/01 00:22:02;;;;;;;1999.90;999.90;;;9.40;99.90;;;;;;5036763;28;20036;-77
2024/01/01 00:24:28;;;;;;;1999.90;999.90;;;9.30;99.90;;;;;;5046571;28;20480;-77
2024/01/01 00:26:54;;;;;;;1999.90;999.90;;;9.30;99.90;;;;;;5054126;28;20028;-77
2024/01/01 00:29:19;;;;;;;1999.90;999.90;;;9.30;99.90;;;;;;5054780;28;20044;-78
2024/01/01 00:31:45;;;;;;;1999.90;999.90;;;9.20;99.90;;;;;;5054793;28;20479;-77
2024/01/01 00:34:10;;;;;;;1999.90;999.90;;;9.20;99.90;;;;;;5054724;28;20029;-77
2024/01/01 00:36:36;;;;;;;1999.90;999.90;;;9.20;99.90;;;;;;5052882;28;20036;-76
2024/01/01 00:39:02;;;;;;;1999.90;999.90;;;9.20;99.90;;;;;;5054462;28;20079;-76
2024/01/01 00:41:28;;;;;;;1999.90;999.90;;;9.20;99.90;;;;;;5036505;28;20035;-76
2024/01/01 00:43:53;;;;;;;1999.90;999.90;;;9.30;99.90;;;;;;5053904;28;20108;-75
2024/01/01 00:46:19;;;;;;;1999.90;999.90;;;9.20;99.90;;;;;;5054332;28;20028;-76
2024/01/01 00:48:45;;;;;;;1999.90;999.90;;;9.20;99.90;;;;;;5053701;28;20459;-77
2024/01/01 00:51:10;;;;;;;1999.90;999.90;;;9.20;99.90;;;;;;5054175;28;20407;-76
2024/01/01 00:53:37;;;;;;;1999.90;999.90;;;9.20;99.90;;;;;;5054391;28;20031;-76
2024/01/01 00:56:02;;;;;;;1999.90;999.90;;;9.20;99.90;;;;;;5054367;28;20021;-76
2024/01/01 00:58:29;;;;;;;1999.90;999.90;;;9.30;99.90;;;;;;5054121;28;20029;-76
2024/01/01 01:00:56;;;;;;;1999.90;999.90;;;9.30;99.90;;;;;;5054191;28;20021;-76
2024/01/01 01:03:22;;;;;;;1999.90;999.90;;;9.20;99.90;;;;;;5054060;28;20078;-76
2024/01/01 01:05:47;;;;;;;1999.90;999.90;;;9.20;99.90;;;;;;5054099;28;20033;-76
2024/01/01 01:08:13;;;;;;;1999.90;999.90;;;9.30;99.90;;;;;;5035865;28;20391;-76
2024/01/01 01:10:39;;;;;;;1999.90;999.90;;;9.20;99.90;;;;;;5053593;28;20033;-76
2024/01/01 01:13:05;;;;;;;1999.90;999.90;;;9.20;99.90;;;;;;5035908;28;20029;-76
2024/01/01 01:15:31;;;;;;;1999.90;999.90;;;9.10;99.90;;;;;;5053295;28;20049;-75
2024/01/01 01:17:57;;;;;;;1999.90;999.90;;;9.00;99.90;;;;;;5053398;28;20500;-76
2024/01/01 01:20:23;;;;;;;1999.90;999.90;;;8.90;99.90;;;;;;5053457;28;20067;-76
2024/01/01 01:22:48;;;;;;;1999.90;999.90;;;8.80;99.90;;;;;;5051625;28;20040;-76
2024/01/01 01:25:14;;;;;;;1999.90;999.90;;;8.80;99.90;;;;;;5041637;28;20036;-76
2024/01/01 01:27:43;;;;;;;1999.90;999.90;;;8.70;99.90;;;;;;5053595;28;20021;-76
2024/01/01 01:30:09;;;;;;;1999.90;999.90;;;8.80;99.90;;;;;;5053423;28;20090;-77
2024/01/01 01:32:35;;;;;;;1999.90;999.90;;;8.90;99.90;;;;;;5053434;28;20036;-76
2024/01/01 01:35:00;;;;;;;1999.90;999.90;;;8.90;99.90;;;;;;5053427;28;20029;-77
2024/01/01 01:37:26;;;;;;;1999.90;999.90;;;8.90;99.90;;;;;;5053034;28;20025;-77
2024/01/01 01:39:52;;;;;;;1999.90;999.90;;;8.90;99.90;;;;;;5035050;28;20387;-75
2024/01/01 01:42:17;;;;;;;1999.90;999.90;;;8.90;99.90;;;;;;5053395;28;20021;-75
2024/01/01 01:44:43;;;;;;;1999.90;999.90;;;9.00;99.90;;;;;;5053074;28;20053;-76
2024/01/01 01:47:10;;;;;;;1999.90;999.90;;;9.10;99.90;;;;;;5053488;28;20036;-75
2024/01/01 01:49:35;;;;;;;1999.90;999.90;;;9.10;99.90;;;;;;5053278;28;20041;-77
2024/01/01 01:52:05;;;;;;;1999.90;999.90;;;9.20;99.90;;;;;;5052822;28;20516;-77
2024/01/01 01:54:33;;;;;;;1999.90;999.90;;;9.20;99.90;;;;;;5052370;28;20111;-79
2024/01/01 01:57:01;;;;;;;1999.90;999.90;;;9.20;99.90;;;;;;5035018;28;20426;-76
2024/01/01 01:59:26;;;;;;;1999.90;999.90;;;9.20;99.90;;;;;;5035504;28;20440;-76
2024/01/01 02:01:52;;;;;;;1999.90;999.90;;;9.30;99.90;;;;;;5052944;28;20051;-76
2024/01/01 02:04:18;;;;;;;1999.90;999.90;;;9.30;99.90;;;;;;5052827;28;20025;-75
2024/01/01 02:06:45;;;;;;;1999.90;999.90;;;9.30;99.90;;;;;;5051507;28;20484;-75
2024/01/01 02:09:11;;;;;;;1999.90;999.90;;;9.50;99.90;;;;;;5052601;28;20029;-76
2024/01/01 02:11:36;;;;;;;1999.90;999.90;;;9.50;99.90;;;;;;5052322;28;20078;-76
2024/01/01 02:14:13;;;;;;;1999.90;999.90;;;9.60;99.90;;;;;;5052854;28;20541;-77
2024/01/01 02:16:39;;;;;;;1999.90;999.90;;;9.70;99.90;;;;;;5052768;28;20415;-75
2024/01/01 02:19:19;;;;;;;1999.90;999.90;;;9.70;99.90;;;;;;5052749;28;20104;-76
2024/01/01 02:21:45;;;;;;;1999.90;999.90;;;9.80;99.90;;;;;;5052151;28;20026;-76
2024/01/01 02:24:11;;;;;;;1999.90;999.90;;;9.80;99.90;;;;;;5044030;28;20079;-76
2024/01/01 02:26:37;;;;;;;1999.90;999.90;;;9.90;99.90;;;;;;5052026;28;20029;-76
2024/01/01 02:29:02;;;;;;;1999.90;999.90;;;9.80;99.90;;;;;;5034801;28;20475;-77
2024/01/01 02:31:28;;;;;;;1999.90;999.90;;;9.90;99.90;;;;;;5052666;28;20487;-76
2024/01/01 02:33:53;;;;;;;1999.90;999.90;;;10.00;99.90;;;;;;5052539;28;20115;-77
2024/01/01 02:36:19;;;;;;;1999.90;999.90;;;10.00;99.90;;;;;;5052345;28;20040;-77
2024/01/01 02:38:45;;;;;;;1999.90;999.90;;;10.00;99.90;;;;;;5052274;28;20056;-74
2024/01/01 02:41:10;;;;;;;1999.90;999.90;;;10.00;99.90;;;;;;5052471;28;20025;-77
2024/01/01 02:43:36;;;;;;;1999.90;999.90;;;10.10;99.90;;;;;;5052545;28;20036;-74
2024/01/01 02:46:01;;;;;;;1999.90;999.90;;;10.10;99.90;;;;;;5052263;28;20017;-76
2024/01/01 02:48:27;;;;;;;1999.90;999.90;;;10.00;99.90;;;;;;5034294;28;20036;-76
2024/01/01 02:50:53;;;;;;;1999.90;999.90;;;9.90;99.90;;;;;;5052209;28;20227;-77
2024/01/01 02:53:19;;;;;;;1999.90;999.90;;;9.80;99.90;;;;;;5052206;28;20033;-76
2024/01/01 02:55:44;;;;;;;1999.90;999.90;;;9.70;99.90;;;;;;5052316;28;20491;-76
2024/01/01 02:58:10;;;;;;;1999.90;999.90;;;9.70;99.90;;;;;;5052039;28;20057;-76
2024/01/01 03:00:36;;;;;;;1999.90;999.90;;;9.70;99.90;;;;;;5034493;28;20044;-76
2024/01/01 03:03:03;;;;;;;1999.90;999.90;;;9.70;99.90;;;;;;5034413;28;20108;-76
2024/01/01 03:05:28;;;;;;;1999.90;999.90;;;9.70;99.90;;;;;;5053056;28;20571;-77
2024/01/01 03:07:54;;;;;;;1999.90;999.90;;;9.70;99.90;;;;;;5055508;28;20096;-76
2024/01/01 03:10:20;;;;;;;1999.90;999.90;;;9.70;99.90;;;;;;5055641;28;20021;-77
2024/01/01 03:12:46;;;;;;;1999.90;999.90;;;9.80;99.90;;;;;;5056227;28;20060;-77
2024/01/01 03:15:12;;;;;;;1999.90;999.90;;;9.80;99.90;;;;;;5056101;28;20044;-77
2024/01/01 03:17:37;;;;;;;1999.90;999.90;;;9.90;99.90;;;;;;5056117;28;20045;-77
2024/01/01 03:20:06;;;;;;;1999.90;999.90;;;9.90;99.90;;;;;;5056031;28;20025;-77
2024/01/01 03:22:32;;;;;;;1999.90;999.90;;;10.00;99.90;;;;;;5037437;28;20123;-77
2024/01/01 03:24:57;;;;;;;1999.90;999.90;;;10.00;99.90;;;;;;5048303;28;20108;-76
2024/01/01 03:27:23;;;;;;;1999.90;999.90;;;10.00;99.90;;;;;;5056050;28;20036;-76
2024/01/01 03:29:49;;;;;;;1999.90;999.90;;;10.00;99.90;;;;;;5055776;28;20029;-76
2024/01/01 03:32:14;;;;;;;1999.90;999.90;;;10.00;99.90;;;;;;5055776;28;20036;-77
2024/01/01 03:34:42;;;;;;;1999.90;999.90;;;9.90;99.90;;;;;;5055755;28;20025;-77
2024/01/01 03:37:08;;;;;;;1999.90;999.90;;;9.80;99.90;;;;;;5055375;28;20033;-77
2024/01/01 03:39:33;;;;;;;1999.90;999.90;;;9.70;99.90;;;;;;5037708;28;20021;-77
2024/01/01 03:41:59;;;;;;;1999.90;999.90;;;9.60;99.90;;;;;;5055572;28;20025;-77
2024/01/01 03:44:24;;;;;;;1999.90;999.90;;;9.50;99.90;;;;;;5037523;28;20048;-77
2024/01/01 03:46:50;;;;;;;1999.90;999.90;;;9.50;99.90;;;;;;5037635;28;20025;-77
2024/01/01 03:49:16;;;;;;;1999.90;999.90;;;9.40;99.90;;;;;;5055562;28;20036;-75
2024/01/01 03:51:41;;;;;;;1999.90;999.90;;;9.40;99.90;;;;;;5055586;28;20100;-77
2024/01/01 03:54:07;;;;;;;1999.90;999.90;;;9.40;99.90;;;;;;5055537;28;20033;-77
2024/01/01 03:56:32;;;;;;;1999.90;999.90;;;9.40;99.90;;;;;;5037482;28;20032;-77
2024/01/01 03:58:58;;;;;;;1999.90;999.90;;;9.50;99.90;;;;;;5055931;28;20476;-76
2024/01/01 04:01:26;;;;;;;1999.90;999.90;;;9.60;99.90;;;;;;5055282;28;20029;-75
2024/01/01 04:03:52;;;;;;;1999.90;999.90;;;9.50;99.90;;;;;;5055240;28;20056;-75
2024/01/01 04:06:18;;;;;;;1999.90;999.90;;;9.30;99.90;;;;;;5036597;28;20036;-77
2024/01/01 04:08:44;;;;;;;1999.90;999.90;;;9.20;99.90;;;;;;5054890;28;20025;-77
2024/01/01 04:11:09;;;;;;;1999.90;999.90;;;9.10;99.90;;;;;;5054876;28;20036;-77
2024/01/01 04:13:35;;;;;;;1999.90;999.90;;;9.00;99.90;;;;;;5055245;28;20029;-77
2024/01/01 04:16:02;;;;;;;1999.90;999.90;;;8.90;99.90;;;;;;5054808;28;20495;-76
2024/01/01 04:18:27;;;;;;;1999.90;999.90;;;9.00;99.90;;;;;;5053850;28;20104;-75
2024/01/01 04:20:53;;;;;;;1999.90;999.90;;;9.00;99.90;;;;;;5054701;28;20108;-76
2024/01/01 04:23:19;;;;;;;1999.90;999.90;;;9.10;99.90;;;;;;5051235;28;20064;-77
2024/01/01 04:25:44;;;;;;;1999.90;999.90;;;9.10;99.90;;;;;;5050220;28;20021;-75
2024/01/01 04:28:10;;;;;;;1999.90;999.90;;;9.20;99.90;;;;;;5054772;28;20029;-76
2024/01/01 04:30:35;;;;;;;1999.90;999.90;;;9.30;99.90;;;;;;5054831;28;20036;-76
2024/01/01 04:33:01;;;;;;;1999.90;999.90;;;9.30;99.90;;;;;;5054545;28;20495;-77
2024/01/01 04:35:27;;;;;;;1999.90;999.90;;;9.20;99.90;;;;;;5054563;28;20052;-76
2024/01/01 04:37:52;;;;;;;1999.90;999.90;;;9.30;99.90;;;;;;5036354;28;20128;-77
2024/01/01 04:40:20;;;;;;;1999.90;999.90;;;9.30;99.90;;;;;;5054493;28;20021;-76
2024/01/01 04:42:48;;;;;;;1999.90;999.90;;;9.20;99.90;;;;;;5036319;28;20060;-76
2024/01/01 04:45:14;;;;;;;1999.90;999.90;;;9.20;99.90;;;;;;5054394;28;20032;-76
2024/01/01 04:47:40;;;;;;;1999.90;999.90;;;9.30;99.90;;;;;;5054426;28;20037;-77
2024/01/01 04:50:06;;;;;;;1999.90;999.90;;;9.20;99.90;;;;;;5054205;28;20029;-76
2024/01/01 04:52:31;;;;;;;1999.90;999.90;;;9.20;99.90;;;;;;5054314;28;20504;-77
2024/01/01 04:54:57;;;;;;;1999.90;999.90;;;9.20;99.90;;;;;;5054662;28;20029;-76
2024/01/01 04:57:22;;;;;;;1999.90;999.90;;;9.30;99.90;;;;;;5054015;28;20060;-77
2024/01/01 04:59:48;;;;;;;1999.90;999.90;;;9.30;99.90;;;;;;5053854;28;20025;-77
2024/01/01 05:02:15;;;;;;;1999.90;999.90;;;9.40;99.90;;;;;;5054503;28;20454;-76
2024/01/01 05:04:41;;;;;;;1999.90;999.90;;;9.40;99.90;;;;;;5036223;28;20021;-75
2024/01/01 05:07:06;;;;;;;1999.90;999.90;;;9.20;99.90;;;;;;5045985;28;20029;-75
2024/01/01 05:09:32;;;;;;;1999.90;999.90;;;9.10;99.90;;;;;;5024443;28;20037;-75
2024/01/01 05:11:58;;;;;;;1999.90;999.90;;;9.00;99.90;;;;;;5054063;28;20032;-75
2024/01/01 05:14:23;;;;;;;1999.90;999.90;;;8.90;99.90;;;;;;5052469;28;20025;-76
2024/01/01 05:16:50;;;;;;;1999.90;999.90;;;8.90;99.90;;;;;;5052564;28;20168;-76
2024/01/01 05:19:16;;;;;;;1999.90;999.90;;;8.90;99.90;;;;;;5053768;28;20021;-77
2024/01/01 05:21:41;;;;;;;1999.90;999.90;;;9.00;99.90;;;;;;5053496;28;20083;-76
2024/01/01 05:24:07;;;;;;;1999.90;999.90;;;8.90;99.90;;;;;;5045207;28;20025;-76
2024/01/01 05:26:32;;;;;;;1999.90;999.90;;;8.90;99.90;;;;;;5052373;28;20549;-76
2024/01/01 05:28:58;;;;;;;1999.90;999.90;;;8.80;99.90;;;;;;5052991;28;20074;-76
2024/01/01 05:31:24;;;;;;;1999.90;999.90;;;8.90;99.90;;;;;;5053780;28;20025;-76
2024/01/01 05:33:49;;;;;;;1999.90;999.90;;;9.00;99.90;;;;;;5053191;28;20029;-75
2024/01/01 05:36:15;;;;;;;1999.90;999.90;;;9.10;99.90;;;;;;5053631;28;20016;-76
2024/01/01 05:38:41;;;;;;;1999.90;999.90;;;9.20;99.90;;;;;;5035197;28;20021;-76
2024/01/01 05:41:09;;;;;;;1999.90;999.90;;;9.30;99.90;;;;;;5053462;28;20433;-76
2024/01/01 05:43:35;;;;;;;1999.90;999.90;;;9.40;99.90;;;;;;5053498;28;20025;-76
2024/01/01 05:46:00;;;;;;;1999.90;999.90;;;9.40;99.90;;;;;;5053111;28;20025;-76
2024/01/01 05:48:26;;;;;;;1999.90;999.90;;;9.50;99.90;;;;;;5053442;28;20545;-76
2024/01/01 05:50:51;;;;;;;1999.90;999.90;;;9.50;99.90;;;;;;5053431;28;20033;-76
2024/01/01 05:53:17;;;;;;;1999.90;999.90;;;9.60;99.90;;;;;;5033131;28;20030;-76
2024/01/01 05:55:43;;;;;;;1999.90;999.90;;;9.70;99.90;;;;;;5033411;28;20543;-76
2024/01/01 05:58:09;;;;;;;1999.90;999.90;;;9.70;99.90;;;;;;5032992;28;20037;-75
2024/01/01 06:00:36;;;;;;;1999.90;999.90;;;9.80;99.90;;;;;;5033145;28;20076;-77
2024/01/01 06:03:05;;;;;;;1999.90;999.90;;;9.90;99.90;;;;;;5031953;28;20026;-77
2024/01/01 06:05:40;;;;;;;1999.90;999.90;;;9.80;99.90;;;;;;5033314;28;20032;-77
2024/01/01 06:08:06;;;;;;;1999.90;999.90;;;9.80;99.90;;;;;;5044689;28;20558;-77
2024/01/01 06:10:32;;;;;;;1999.90;999.90;;;9.80;99.90;;;;;;5042653;28;20044;-77
2024/01/01 06:12:58;;;;;;;1999.90;999.90;;;9.80;99.90;;;;;;5035038;28;20526;-77
2024/01/01 06:15:25;;;;;;;1999.90;999.90;;;9.70;99.90;;;;;;5052644;28;20124;-76
2024/01/01 06:17:52;;;;;;;1999.90;999.90;;;9.70;99.90;;;;;;5052731;28;20030;-76
2024/01/01 06:20:18;;;;;;;1999.90;999.90;;;9.70;99.90;;;;;;5051962;28;20024;-77
2024/01/01 06:22:45;;;;;;;1999.90;999.90;;;9.70;99.90;;;;;;5052779;28;20025;-78
2024/01/01 06:25:11;;;;;;;1999.90;999.90;;;9.70;99.90;;;;;;5044531;28;20025;-77
2024/01/01 06:27:37;;;;;;;1999.90;999.90;;;9.70;99.90;;;;;;5052732;28;20051;-77
2024/01/01 06:30:05;;;;;;;1999.90;999.90;;;9.60;99.90;;;;;;5052727;28;20029;-76
2024/01/01 06:32:31;;;;;;;1999.90;999.90;;;9.60;99.90;;;;;;5052525;28;20040;-76
2024/01/01 06:34:56;;;;;;;1999.90;999.90;;;9.60;99.90;;;;;;5052689;28;20037;-77
2024/01/01 06:37:22;;;;;;;1999.90;999.90;;;9.60;99.90;;;;;;5052302;28;20025;-75
2024/01/01 06:39:48;;;;;;;1999.90;999.90;;;9.60;99.90;;;;;;5052051;28;20018;-77
2024/01/01 06:42:15;;;;;;;1999.90;999.90;;;9.60;99.90;;;;;;5034428;28;20033;-75
2024/01/01 06:44:41;;;;;;;1999.90;999.90;;;9.50;99.90;;;;;;5052435;28;20487;-76
2024/01/01 06:47:07;;;;;;;1999.90;999.90;;;9.60;99.90;;;;;;5052644;28;20028;-76
2024/01/01 06:49:32;;;;;;;1999.90;999.90;;;9.60;99.90;;;;;;5052373;28;20029;-75
2024/01/01 06:51:58;;;;;;;1999.90;999.90;;;9.60;99.90;;;;;;5052463;28;20032;-76
2024/01/01 06:54:23;;;;;;;1999.90;999.90;;;9.60;99.90;;;;;;5051783;28;20036;-75
2024/01/01 06:56:49;;;;;;;1999.90;999.90;;;9.60;99.90;;;;;;5052424;28;20029;-76
2024/01/01 06:59:16;;;;;;;1999.90;999.90;;;9.70;99.90;;;;;;5052395;28;20425;-76
2024/01/01 07:01:43;;;;;;;1999.90;999.90;;;9.60;99.90;;;;;;5052455;28;20503;-76
2024/01/01 07:04:09;;;;;;;1999.90;999.90;;;9.60;99.90;;;;;;5052449;28;20029;-76
2024/01/01 07:06:36;;;;;;;1999.90;999.90;;;9.70;99.90;;;;;;5052746;28;20017;-76
2024/01/01 07:09:02;;;;;;;1999.90;999.90;;;9.70;99.90;;;;;;5052103;28;20100;-76
2024/01/01 07:11:28;;;;;;;1999.90;999.90;;;9.60;99.90;;;;;;5051838;28;20045;-75
2024/01/01 07:13:53;;;;;;;1999.90;999.90;;;9.60;99.90;;;;;;5052069;28;20104;-76
2024/01/01 07:16:19;;;;;;;1999.90;999.90;;;9.50;99.90;;;;;;5052011;28;20120;-76
2024/01/01 07:18:46;;;;;;;1999.90;999.90;;;9.60;99.90;;;;;;5034240;28;20037;-77
2024/01/01 07:21:11;;;;;;;1999.90;999.90;;;9.70;99.90;;;;;;5030536;28;20029;-77
2024/01/01 07:23:37;;;;;;;1999.90;999.90;;;9.70;99.90;;;;;;5034140;28;20021;-75
2024/01/01 07:26:04;;;;;;;1999.90;999.90;;;9.70;99.90;;;;;;5047556;28;20488;-75
2024/01/01 07:28:29;;;;;;;1999.90;999.90;;;9.80;99.90;;;;;;5048841;28;20084;-75
2024/01/01 07:30:57;;;;;;;1999.90;999.90;;;9.80;99.90;;;;;;5043096;28;20033;-77
2024/01/01 07:33:23;;;;;;;1999.90;999.90;;;9.90;99.90;;;;;;5033563;28;20025;-77
2024/01/01 07:35:48;;;;;;;1999.90;999.90;;;9.90;99.90;;;;;;5051830;28;20032;-75
2024/01/01 07:38:14;;;;;;;1999.90;999.90;;;9.90;99.90;;;;;;5051893;28;20070;-78
2024/01/01 07:40:39;;;;;;;1999.90;999.90;;;10.00;99.90;;;;;;5051784;28;20067;-77
2024/01/01 07:43:05;;;;;;;1999.90;999.90;;;10.00;99.90;;;;;;5052234;28;20395;-76
2024/01/01 07:45:31;;;;;;;1999.90;999.90;;;10.10;99.90;;;;;;5051798;28;20096;-76
2024/01/01 07:47:57;;;;;;;1999.90;999.90;;;10.20;99.90;;;;;;5051782;28;20040;-76
2024/01/01 07:50:23;;;;;;;1999.90;999.90;;;10.20;99.90;;;;;;5051924;28;20025;-76
2024/01/01 07:52:48;;;;;;;1999.90;999.90;;;10.20;99.90;;;;;;5053060;28;20032;-76
2024/01/01 07:55:14;;;;;;;1999.90;999.90;;;10.20;99.90;;;;;;5053504;28;20143;-76
2024/01/01 07:57:39;;;;;;;1999.90;999.90;;;10.20;99.90;;;;;;5044899;28;20507;-76
2024/01/01 08:00:06;;;;;;;1999.90;999.90;;;10.20;99.90;;;;;;5035444;28;20032;-76
2024/01/01 08:02:32;;;;;;;1999.90;999.90;;;10.20;99.90;;;;;;5044518;28;20033;-76
2024/01/01 08:04:59;;;;;;;1999.90;999.90;;;10.20;99.90;;;;;;5038376;28;20018;-76
2024/01/01 08:07:24;;;;;;;1999.90;999.90;;;10.20;99.90;;;;;;5035517;28;20511;-76
2024/01/01 08:09:50;;;;;;;1999.90;999.90;;;10.30;99.90;;;;;;5039391;28;20048;-76
2024/01/01 08:12:16;;;;;;;1999.90;999.90;;;10.30;99.90;;;;;;5055423;28;20108;-76
2024/01/01 08:14:42;;;;;;;1999.90;999.90;;;10.40;99.90;;;;;;5055063;28;20067;-76
2024/01/01 08:17:08;;;;;;;1999.90;999.90;;;10.50;99.90;;;;;;5054980;28;20513;-76
2024/01/01 08:19:34;;;;;;;1999.90;999.90;;;10.60;99.90;;;;;;5054708;28;20023;-77
2024/01/01 08:22:00;;;;;;;1999.90;999.90;;;10.60;99.90;;;;;;5054773;28;20017;-76
2024/01/01 08:24:26;;;;;;;1999.90;999.90;;;10.60;99.90;;;;;;5047073;28;20030;-76
2024/01/01 08:26:51;;;;;;;1999.90;999.90;;;10.60;99.90;;;;;;5053367;28;20029;-76
2024/01/01 08:29:17;;;;;;;1999.90;999.90;;;10.60;99.90;;;;;;5055084;28;20017;-76
2024/01/01 08:31:43;;;;;;;1999.90;999.90;;;10.60;99.90;;;;;;5054887;28;20051;-76
2024/01/01 08:34:09;;;;;;;1999.90;999.90;;;10.60;99.90;;;;;;5054523;28;20079;-76
2024/01/01 08:36:34;;;;;;;1999.90;999.90;;;10.60;99.90;;;;;;5053811;28;20066;-77
2024/01/01 08:39:00;;;;;;;1999.90;999.90;;;10.60;99.90;;;;;;5046335;28;20029;-76
2024/01/01 08:41:26;;;;;;;1999.90;999.90;;;10.60;99.90;;;;;;5034603;28;20118;-77
2024/01/01 08:43:56;;;;;;;1999.90;999.90;;;10.50;99.90;;;;;;5034676;28;20032;-77
2024/01/01 08:46:24;;;;;;;1999.90;999.90;;;10.40;99.90;;;;;;5034661;28;20033;-76
2024/01/01 08:48:51;;;;;;;1999.90;999.90;;;10.40;99.90;;;;;;5034469;28;20032;-76
2024/01/01 08:51:16;;;;;;;1999.90;999.90;;;10.40;99.90;;;;;;5034387;28;20032;-77
2024/01/01 08:53:42;;;;;;;1999.90;999.90;;;10.30;99.90;;;;;;5034409;28;20033;-77
2024/01/01 08:56:08;;;;;;;1999.90;999.90;;;10.30;99.90;;;;;;5034323;28;20065;-76
2024/01/01 08:58:34;;;;;;;1999.90;999.90;;;10.30;99.90;;;;;;5034170;28;20504;-77
2024/01/01 09:00:59;;;;;;;1999.90;999.90;;;10.30;99.90;;;;;;5034348;28;20022;-76
2024/01/01 09:03:27;;;;;;;1999.90;999.90;;;10.20;99.90;;;;;;5033904;28;20025;-77
2024/01/01 09:05:54;;;;;;;1999.90;999.90;;;10.20;99.90;;;;;;5035362;28;20488;-77
2024/01/01 09:08:20;;;;;;;1999.90;999.90;;;10.20;99.90;;;;;;5045101;28;20144;-76
2024/01/01 09:10:45;;;;;;;1999.90;999.90;;;10.20;99.90;;;;;;5045923;28;20107;-77
2024/01/01 09:13:11;;;;;;;1999.90;999.90;;;10.20;99.90;;;;;;5053966;28;20033;-76
2024/01/01 09:15:37;;;;;;;1999.90;999.90;;;10.30;99.90;;;;;;5035866;28;20393;-77
2024/01/01 09:18:03;;;;;;;1999.90;999.90;;;10.50;99.90;;;;;;5053997;28;20037;-77
2024/01/01 09:20:28;;;;;;;1999.90;999.90;;;10.70;99.90;;;;;;5053627;28;20151;-77
2024/01/01 09:22:56;;;;;;;1999.90;999.90;;;10.80;99.90;;;;;;5035886;28;20182;-77
2024/01/01 09:25:22;;;;;;;1999.90;999.90;;;11.00;99.90;;;;;;5045548;28;20095;-77
2024/01/01 09:27:47;;;;;;;1999.90;999.90;;;11.20;99.90;;;;;;5053580;28;20068;-77
2024/01/01 09:30:13;;;;;;;1999.90;999.90;;;11.40;99.90;;;;;;5053687;28;20487;-77
2024/01/01 09:32:39;;;;;;;1999.90;999.90;;;11.50;99.90;;;;;;5053567;28;20029;-77
2024/01/01 09:35:05;;;;;;;1999.90;999.90;;;11.40;99.90;;;;;;5035929;28;20033;-77
2024/01/01 09:37:31;;;;;;;1999.90;999.90;;;11.20;99.90;;;;;;5045583;28;20514;-77
2024/01/01 09:39:56;;;;;;;1999.90;999.90;;;11.10;99.90;;;;;;5036429;28;20025;-76
2024/01/01 09:42:22;;;;;;;1999.90;999.90;;;11.00;99.90;;;;;;5033824;28;20116;-77
2024/01/01 09:44:52;;;;;;;1999.90;999.90;;;11.00;99.90;;;;;;5033719;28;20027;-76
2024/01/01 09:47:18;;;;;;;1999.90;999.90;;;11.00;99.90;;;;;;5033200;28;20546;-77
2024/01/01 09:49:44;;;;;;;1999.90;999.90;;;11.00;99.90;;;;;;5033073;28;20029;-77
2024/01/01 09:52:14;;;;;;;1999.90;999.90;;;11.20;99.90;;;;;;5033051;28;20041;-76
2024/01/01 09:54:43;;;;;;;1999.90;999.90;;;11.20;99.90;;;;;;5033195;28;20018;-76
2024/01/01 09:57:09;;;;;;;1999.90;999.90;;;11.10;99.90;;;;;;5015402;28;20033;-76
2024/01/01 09:59:37;;;;;;;1999.90;999.90;;;11.10;99.90;;;;;;5033472;28;20096;-76
2024/01/01 10:02:04;;;;;;;1999.90;999.90;;;11.00;99.90;;;;;;5033050;28;20507;-76
2024/01/01 10:04:30;;;;;;;1999.90;999.90;;;11.00;99.90;;;;;;5033202;28;20504;-76
2024/01/01 10:07:00;;;;;;;1999.90;999.90;;;10.90;99.90;;;;;;5032395;28;20138;-76
2024/01/01 10:09:27;;;;;;;1999.90;999.90;;;10.90;99.90;;;;;;5033884;28;20026;-76
2024/01/01 10:12:01;;;;;;;1999.90;999.90;;;10.90;99.90;;;;;;5053049;28;20096;-77
2024/01/01 10:14:26;;;;;;;1999.90;999.90;;;11.00;99.90;;;;;;5052608;28;20056;-76
2024/01/01 10:16:52;;;;;;;1999.90;999.90;;;11.00;99.90;;;;;;5052554;28;20064;-76
2024/01/01 10:19:18;;;;;;;1999.90;999.90;;;11.00;99.90;;;;;;5052755;28;20032;-76
2024/01/01 10:21:43;;;;;;;1999.90;999.90;;;11.10;99.90;;;;;;5051972;28;20492;-76
2024/01/01 10:24:15;;;;;;;1999.90;999.90;;;11.00;99.90;;;;;;5046482;28;20064;-77
2024/01/01 10:26:45;;;;;;;1999.90;999.90;;;11.00;99.90;;;;;;5051604;28;20053;-76
2024/01/01 10:29:16;;;;;;;1999.90;999.90;;;10.90;99.90;;;;;;5053016;28;20541;-76
2024/01/01 10:31:46;;;;;;;1999.90;999.90;;;10.80;99.90;;;;;;5052555;28;20032;-77
2024/01/01 10:34:12;;;;;;;1999.90;999.90;;;10.70;99.90;;;;;;5052442;28;20029;-78
2024/01/01 10:36:40;;;;;;;1999.90;999.90;;;10.70;99.90;;;;;;5052594;28;20126;-76
2024/01/01 10:39:08;;;;;;;1999.90;999.90;;;10.80;99.90;;;;;;5052280;28;20085;-76
2024/01/01 10:41:36;;;;;;;1999.90;999.90;;;10.90;99.90;;;;;;5052566;28;20048;-77
2024/01/01 10:44:09;;;;;;;1999.90;999.90;;;11.20;99.90;;;;;;5052527;28;20025;-75
2024/01/01 10:46:39;;;;;;;1999.90;999.90;;;11.20;99.90;;;;;;5052137;28;20495;-76
2024/01/01 10:49:08;;;;;;;1999.90;999.90;;;11.30;99.90;;;;;;5052443;28;20040;-75
2024/01/01 10:51:58;;;;;;;1999.90;999.90;;;11.40;99.90;;;;;;5034593;28;20032;-76
2024/01/01 10:54:29;;;;;;;1999.90;999.90;;;11.40;99.90;;;;;;5052329;28;20040;-78
2024/01/01 10:56:57;;;;;;;1999.90;999.90;;;11.60;99.90;;;;;;5052355;28;20029;-77
2024/01/01 10:59:31;;;;;;;1999.90;999.90;;;11.90;99.90;;;;;;5052490;28;20028;-76
2024/01/01 11:01:57;;;;;;;1999.90;999.90;;;12.00;99.90;;;;;;5052345;28;20504;-77
2024/01/01 11:04:23;;;;;;;1999.90;999.90;;;12.00;99.90;;;;;;5052379;28;20387;-77
2024/01/01 11:06:49;;;;;;;1999.90;999.90;;;12.10;99.90;;;;;;5052352;28;20017;-76
2024/01/01 11:09:21;;;;;;;1999.90;999.90;;;12.10;99.90;;;;;;5051874;28;20025;-76
2024/01/01 11:11:49;;;;;;;1999.90;999.90;;;12.30;99.90;;;;;;5032674;28;20026;-76
2024/01/01 11:14:26;;;;;;;1999.90;999.90;;;12.40;99.90;;;;;;5032268;28;20373;-76
2024/01/01 11:16:54;;;;;;;1999.90;999.90;;;12.30;99.90;;;;;;5032616;28;20442;-77
2024/01/01 11:19:43;;;;;;;1999.90;999.90;;;12.40;99.90;;;;;;5032084;28;20480;-76
2024/01/01 11:22:28;;;;;;;1999.90;999.90;;;12.70;99.90;;;;;;5032060;28;20021;-78
2024/01/01 11:24:54;;;;;;;1999.90;999.90;;;12.50;99.90;;;;;;5038092;28;20037;-76
2024/01/01 11:27:31;;;;;;;1999.90;999.90;;;12.50;99.90;;;;;;5053698;28;20562;-76
2024/01/01 11:30:01;;;;;;;1999.90;999.90;;;12.70;99.90;;;;;;5037350;28;20029;-76
2024/01/01 11:32:27;;;;;;;1999.90;999.90;;;13.10;99.90;;;;;;5055629;28;20061;-78
2024/01/01 11:35:16;;;;;;;1999.90;999.90;;;12.90;99.90;;;;;;5037977;28;20102;-78
2024/01/01 11:37:43;;;;;;;1999.90;999.90;;;12.80;99.90;;;;;;5055432;28;20060;-76
2024/01/01 11:40:10;;;;;;;1999.90;999.90;;;12.80;99.90;;;;;;5055512;28;20025;-76
2024/01/01 11:42:36;;;;;;;1999.90;999.90;;;13.00;99.90;;;;;;5056065;28;20025;-76
2024/01/01 11:45:09;;;;;;;1999.90;999.90;;;13.10;99.90;;;;;;5055568;28;20025;-76
2024/01/01 11:47:36;;;;;;;1999.90;999.90;;;13.10;99.90;;;;;;5056067;28;20021;-78
2024/01/01 11:50:02;;;;;;;1999.90;999.90;;;13.20;99.90;;;;;;5055533;28;20032;-78
2024/01/01 11:52:29;;;;;;;1999.90;999.90;;;13.20;99.90;;;;;;5055651;28;20017;-77
2024/01/01 11:54:54;;;;;;;1999.90;999.90;;;13.20;99.90;;;;;;5055509;28;20112;-78
2024/01/01 11:57:20;;;;;;;1999.90;999.90;;;13.20;99.90;;;;;;5055249;28;20108;-77
2024/01/01 11:59:48;;;;;;;1999.90;999.90;;;13.10;99.90;;;;;;5037671;28;20061;-77